sensor_id;sensor_type;location;lat;lon;timestamp;temperature;humidity
45137;DHT22;30894;51.740;19.498;2022-10-30T00:00:38;14.30;99.90
45137;DHT22;30894;51.740;19.498;2022-10-30T00:03:24;14.30;99.90
45137;DHT22;30894;51.740;19.498;2022-10-30T00:05:51;14.30;99.90
45137;DHT22;30894;51.740;19.498;2022-10-30T00:08:18;14.20;99.90
45137;DHT22;30894;51.740;19.498;2022-10-30T00:10:46;14.10;99.90
45137;DHT22;30894;51.740;19.498;2022-10-30T00:13:15;14.10;99.90
45137;DHT22;30894;51.740;19.498;2022-10-30T00:15:49;14.10;99.90
45137;DHT22;30894;51.740;19.498;2022-10-30T00:18:16;14.10;99.90
45137;DHT22;30894;51.740;19.498;2022-10-30T00:20:43;14.00;99.90
45137;DHT22;30894;51.740;19.498;2022-10-30T00:23:09;14.00;99.90
45137;DHT22;30894;51.740;19.498;2022-10-30T00:25:35;14.00;99.90
45137;DHT22;30894;51.740;19.498;2022-10-30T00:28:03;13.90;99.90
45137;DHT22;30894;51.740;19.498;2022-10-30T00:30:33;13.90;99.90
45137;DHT22;30894;51.740;19.498;2022-10-30T00:33:00;13.90;99.90
45137;DHT22;30894;51.740;19.498;2022-10-30T00:35:25;13.80;99.90
45137;DHT22;30894;51.740;19.498;2022-10-30T00:37:51;13.80;99.90
45137;DHT22;30894;51.740;19.498;2022-10-30T00:40:18;13.80;99.90
45137;DHT22;30894;51.740;19.498;2022-10-30T00:42:44;13.80;99.90
45137;DHT22;30894;51.740;19.498;2022-10-30T00:45:12;13.90;99.90
45137;DHT22;30894;51.740;19.498;2022-10-30T00:47:54;14.00;99.90
45137;DHT22;30894;51.740;19.498;2022-10-30T00:50:29;14.00;99.90
45137;DHT22;30894;51.740;19.498;2022-10-30T00:55:39;14.10;99.90
45137;DHT22;30894;51.740;19.498;2022-10-30T00:58:10;14.20;99.90
45137;DHT22;30894;51.740;19.498;2022-10-30T01:00:42;14.30;99.90
45137;DHT22;30894;51.740;19.498;2022-10-30T01:03:12;14.30;99.90
45137;DHT22;30894;51.740;19.498;2022-10-30T01:05:38;14.30;99.90
45137;DHT22;30894;51.740;19.498;2022-10-30T01:08:04;14.40;99.90
45137;DHT22;30894;51.740;19.498;2022-10-30T01:10:30;14.50;99.90
45137;DHT22;30894;51.740;19.498;2022-10-30T01:12:57;14.50;99.90
45137;DHT22;30894;51.740;19.498;2022-10-30T01:15:31;14.50;99.90
45137;DHT22;30894;51.740;19.498;2022-10-30T01:24:25;14.50;99.90
45137;DHT22;30894;51.740;19.498;2022-10-30T01:28:12;14.50;99.90
45137;DHT22;30894;51.740;19.498;2022-10-30T01:36:38;14.40;99.90
45137;DHT22;30894;51.740;19.498;2022-10-30T01:39:28;14.40;99.90
45137;DHT22;30894;51.740;19.498;2022-10-30T01:41:58;14.40;99.90
45137;DHT22;30894;51.740;19.498;2022-10-30T01:44:31;14.40;99.90
45137;DHT22;30894;51.740;19.498;2022-10-30T01:47:20;14.40;99.90
45137;DHT22;30894;51.740;19.498;2022-10-30T01:59:02;14.50;99.90
45137;DHT22;30894;51.740;19.498;2022-10-30T02:01:35;14.40;99.90
45137;DHT22;30894;51.740;19.498;2022-10-30T02:04:18;14.50;99.90
45137;DHT22;30894;51.740;19.498;2022-10-30T02:06:44;14.40;99.90
45137;DHT22;30894;51.740;19.498;2022-10-30T02:09:10;14.40;99.90
45137;DHT22;30894;51.740;19.498;2022-10-30T02:11:37;14.50;99.90
45137;DHT22;30894;51.740;19.498;2022-10-30T02:14:06;14.40;99.90
45137;DHT22;30894;51.740;19.498;2022-10-30T02:16:40;14.40;99.90
45137;DHT22;30894;51.740;19.498;2022-10-30T02:19:08;14.40;99.90
45137;DHT22;30894;51.740;19.498;2022-10-30T02:21:33;14.40;99.90
45137;DHT22;30894;51.740;19.498;2022-10-30T02:23:59;14.50;99.90
45137;DHT22;30894;51.740;19.498;2022-10-30T02:26:26;14.40;99.90
45137;DHT22;30894;51.740;19.498;2022-10-30T02:28:51;14.40;99.90
45137;DHT22;30894;51.740;19.498;2022-10-30T02:31:17;14.40;99.90
45137;DHT22;30894;51.740;19.498;2022-10-30T02:33:47;14.40;99.90
45137;DHT22;30894;51.740;19.498;2022-10-30T02:36:14;14.40;99.90
45137;DHT22;30894;51.740;19.498;2022-10-30T02:38:41;14.40;99.90
45137;DHT22;30894;51.740;19.498;2022-10-30T02:41:07;14.40;99.90
45137;DHT22;30894;51.740;19.498;2022-10-30T02:43:34;14.40;99.90
45137;DHT22;30894;51.740;19.498;2022-10-30T02:45:59;14.40;99.90
45137;DHT22;30894;51.740;19.498;2022-10-30T02:48:26;14.40;99.90
45137;DHT22;30894;51.740;19.498;2022-10-30T02:50:51;14.30;99.90
45137;DHT22;30894;51.740;19.498;2022-10-30T02:53:17;14.30;99.90
45137;DHT22;30894;51.740;19.498;2022-10-30T02:55:44;14.30;99.90
45137;DHT22;30894;51.740;19.498;2022-10-30T02:58:10;14.20;99.90
45137;DHT22;30894;51.740;19.498;2022-10-30T03:00:36;14.10;99.90
45137;DHT22;30894;51.740;19.498;2022-10-30T03:03:02;14.10;99.90
45137;DHT22;30894;51.740;19.498;2022-10-30T03:05:28;13.90;99.90
45137;DHT22;30894;51.740;19.498;2022-10-30T03:07:53;13.80;99.90
45137;DHT22;30894;51.740;19.498;2022-10-30T03:10:20;13.80;99.90
45137;DHT22;30894;51.740;19.498;2022-10-30T03:12:45;13.80;99.90
45137;DHT22;30894;51.740;19.498;2022-10-30T03:15:11;13.70;99.90
45137;DHT22;30894;51.740;19.498;2022-10-30T03:17:37;13.70;99.90
45137;DHT22;30894;51.740;19.498;2022-10-30T03:20:03;13.70;99.90
45137;DHT22;30894;51.740;19.498;2022-10-30T03:22:30;13.70;99.90
45137;DHT22;30894;51.740;19.498;2022-10-30T03:24:56;13.60;99.90
45137;DHT22;30894;51.740;19.498;2022-10-30T03:27:22;13.60;99.90
45137;DHT22;30894;51.740;19.498;2022-10-30T03:29:48;13.60;99.90
45137;DHT22;30894;51.740;19.498;2022-10-30T03:32:14;13.60;99.90
45137;DHT22;30894;51.740;19.498;2022-10-30T03:34:40;13.60;99.90
45137;DHT22;30894;51.740;19.498;2022-10-30T03:37:06;13.70;99.90
45137;DHT22;30894;51.740;19.498;2022-10-30T03:39:32;13.70;99.90
45137;DHT22;30894;51.740;19.498;2022-10-30T03:41:59;13.70;99.90
45137;DHT22;30894;51.740;19.498;2022-10-30T03:44:25;13.80;99.90
45137;DHT22;30894;51.740;19.498;2022-10-30T03:46:51;13.80;99.90
45137;DHT22;30894;51.740;19.498;2022-10-30T03:49:17;13.80;99.90
45137;DHT22;30894;51.740;19.498;2022-10-30T03:51:43;13.80;99.90
45137;DHT22;30894;51.740;19.498;2022-10-30T03:54:09;13.80;99.90
45137;DHT22;30894;51.740;19.498;2022-10-30T03:56:35;13.90;99.90
45137;DHT22;30894;51.740;19.498;2022-10-30T03:59:01;13.90;99.90
45137;DHT22;30894;51.740;19.498;2022-10-30T04:01:27;13.90;99.90
45137;DHT22;30894;51.740;19.498;2022-10-30T04:03:53;14.00;99.90
45137;DHT22;30894;51.740;19.498;2022-10-30T04:06:19;14.00;99.90
45137;DHT22;30894;51.740;19.498;2022-10-30T04:08:45;14.10;99.90
45137;DHT22;30894;51.740;19.498;2022-10-30T04:11:11;14.10;99.90
45137;DHT22;30894;51.740;19.498;2022-10-30T04:13:38;14.10;99.90
45137;DHT22;30894;51.740;19.498;2022-10-30T04:16:05;14.10;99.90
45137;DHT22;30894;51.740;19.498;2022-10-30T04:18:31;14.00;99.90
45137;DHT22;30894;51.740;19.498;2022-10-30T04:21:00;13.90;99.90
45137;DHT22;30894;51.740;19.498;2022-10-30T04:23:27;13.90;99.90
45137;DHT22;30894;51.740;19.498;2022-10-30T04:25:54;13.80;99.90
45137;DHT22;30894;51.740;19.498;2022-10-30T04:28:20;13.70;99.90
45137;DHT22;30894;51.740;19.498;2022-10-30T04:30:47;13.60;99.90
45137;DHT22;30894;51.740;19.498;2022-10-30T04:33:13;13.60;99.90
45137;DHT22;30894;51.740;19.498;2022-10-30T04:35:43;13.40;99.90
45137;DHT22;30894;51.740;19.498;2022-10-30T04:38:13;13.30;99.90
45137;DHT22;30894;51.740;19.498;2022-10-30T04:40:42;13.30;99.90
45137;DHT22;30894;51.740;19.498;2022-10-30T04:43:09;13.30;99.90
45137;DHT22;30894;51.740;19.498;2022-10-30T04:45:36;13.20;99.90
45137;DHT22;30894;51.740;19.498;2022-10-30T04:50:33;13.20;99.90
45137;DHT22;30894;51.740;19.498;2022-10-30T04:53:03;13.30;99.90
45137;DHT22;30894;51.740;19.498;2022-10-30T04:55:34;13.20;99.90
45137;DHT22;30894;51.740;19.498;2022-10-30T04:58:00;13.30;99.90
45137;DHT22;30894;51.740;19.498;2022-10-30T05:00:30;13.30;99.90
45137;DHT22;30894;51.740;19.498;2022-10-30T05:02:58;13.40;99.90
45137;DHT22;30894;51.740;19.498;2022-10-30T05:05:26;13.30;99.90
45137;DHT22;30894;51.740;19.498;2022-10-30T05:07:52;13.20;99.90
45137;DHT22;30894;51.740;19.498;2022-10-30T05:10:18;13.10;99.90
45137;DHT22;30894;51.740;19.498;2022-10-30T05:12:44;13.10;99.90
45137;DHT22;30894;51.740;19.498;2022-10-30T05:15:12;12.90;99.90
45137;DHT22;30894;51.740;19.498;2022-10-30T05:17:39;12.80;99.90
45137;DHT22;30894;51.740;19.498;2022-10-30T05:20:06;12.70;99.90
45137;DHT22;30894;51.740;19.498;2022-10-30T05:22:32;12.60;99.90
45137;DHT22;30894;51.740;19.498;2022-10-30T05:24:58;12.60;99.90
45137;DHT22;30894;51.740;19.498;2022-10-30T05:27:24;12.50;99.90
45137;DHT22;30894;51.740;19.498;2022-10-30T05:29:50;12.50;99.90
45137;DHT22;30894;51.740;19.498;2022-10-30T05:32:16;12.50;99.90
45137;DHT22;30894;51.740;19.498;2022-10-30T05:34:50;12.50;99.90
45137;DHT22;30894;51.740;19.498;2022-10-30T05:37:16;12.40;99.90
45137;DHT22;30894;51.740;19.498;2022-10-30T05:39:41;12.50;99.90
45137;DHT22;30894;51.740;19.498;2022-10-30T05:42:07;12.60;99.90
45137;DHT22;30894;51.740;19.498;2022-10-30T05:44:33;12.60;99.90
45137;DHT22;30894;51.740;19.498;2022-10-30T05:46:59;12.60;99.90
45137;DHT22;30894;51.740;19.498;2022-10-30T05:49:25;12.60;99.90
45137;DHT22;30894;51.740;19.498;2022-10-30T05:51:51;12.60;99.90
45137;DHT22;30894;51.740;19.498;2022-10-30T05:54:19;12.50;99.90
45137;DHT22;30894;51.740;19.498;2022-10-30T05:56:45;12.60;99.90
45137;DHT22;30894;51.740;19.498;2022-10-30T05:59:11;12.50;99.90
45137;DHT22;30894;51.740;19.498;2022-10-30T06:01:37;12.50;99.90
45137;DHT22;30894;51.740;19.498;2022-10-30T06:04:03;12.50;99.90
45137;DHT22;30894;51.740;19.498;2022-10-30T06:06:29;12.50;99.90
45137;DHT22;30894;51.740;19.498;2022-10-30T06:08:55;12.40;99.90
45137;DHT22;30894;51.740;19.498;2022-10-30T06:11:21;12.40;99.90
45137;DHT22;30894;51.740;19.498;2022-10-30T06:13:49;12.40;99.90
45137;DHT22;30894;51.740;19.498;2022-10-30T06:16:15;12.40;99.90
45137;DHT22;30894;51.740;19.498;2022-10-30T06:18:41;12.40;99.90
45137;DHT22;30894;51.740;19.498;2022-10-30T06:21:07;12.50;99.90
45137;DHT22;30894;51.740;19.498;2022-10-30T06:23:33;12.50;99.90
45137;DHT22;30894;51.740;19.498;2022-10-30T06:25:59;12.50;99.90
45137;DHT22;30894;51.740;19.498;2022-10-30T06:28:25;12.60;99.90
45137;DHT22;30894;51.740;19.498;2022-10-30T06:30:53;12.80;99.90
45137;DHT22;30894;51.740;19.498;2022-10-30T06:33:19;12.90;99.90
45137;DHT22;30894;51.740;19.498;2022-10-30T06:35:47;13.10;99.90
45137;DHT22;30894;51.740;19.498;2022-10-30T06:38:14;13.20;99.90
45137;DHT22;30894;51.740;19.498;2022-10-30T06:40:42;13.40;99.90
45137;DHT22;30894;51.740;19.498;2022-10-30T06:43:08;13.40;99.90
45137;DHT22;30894;51.740;19.498;2022-10-30T06:45:34;13.50;99.90
45137;DHT22;30894;51.740;19.498;2022-10-30T06:48:04;13.50;99.90
45137;DHT22;30894;51.740;19.498;2022-10-30T06:50:30;13.50;99.90
45137;DHT22;30894;51.740;19.498;2022-10-30T06:52:57;13.60;99.90
45137;DHT22;30894;51.740;19.498;2022-10-30T06:55:23;13.60;99.90
45137;DHT22;30894;51.740;19.498;2022-10-30T06:57:53;13.70;99.90
45137;DHT22;30894;51.740;19.498;2022-10-30T07:00:20;13.60;99.90
45137;DHT22;30894;51.740;19.498;2022-10-30T07:03:12;13.60;99.90
45137;DHT22;30894;51.740;19.498;2022-10-30T07:05:38;13.60;99.90
45137;DHT22;30894;51.740;19.498;2022-10-30T07:08:04;13.70;99.90
45137;DHT22;30894;51.740;19.498;2022-10-30T07:10:31;13.80;99.90
45137;DHT22;30894;51.740;19.498;2022-10-30T07:12:58;13.90;99.90
45137;DHT22;30894;51.740;19.498;2022-10-30T07:15:25;14.00;99.90
45137;DHT22;30894;51.740;19.498;2022-10-30T07:17:56;14.10;99.90
45137;DHT22;30894;51.740;19.498;2022-10-30T07:20:36;14.20;99.90
45137;DHT22;30894;51.740;19.498;2022-10-30T07:23:02;14.20;99.90
45137;DHT22;30894;51.740;19.498;2022-10-30T07:25:29;14.20;99.90
45137;DHT22;30894;51.740;19.498;2022-10-30T07:27:56;14.30;99.90
45137;DHT22;30894;51.740;19.498;2022-10-30T07:30:26;14.30;99.90
45137;DHT22;30894;51.740;19.498;2022-10-30T07:33:00;14.40;99.90
45137;DHT22;30894;51.740;19.498;2022-10-30T07:35:33;14.50;99.90
45137;DHT22;30894;51.740;19.498;2022-10-30T07:38:11;14.60;99.90
45137;DHT22;30894;51.740;19.498;2022-10-30T07:40:37;14.60;99.90
45137;DHT22;30894;51.740;19.498;2022-10-30T07:43:04;14.60;99.90
45137;DHT22;30894;51.740;19.498;2022-10-30T07:45:31;14.60;99.90
45137;DHT22;30894;51.740;19.498;2022-10-30T07:47:57;14.60;99.90
45137;DHT22;30894;51.740;19.498;2022-10-30T07:50:23;14.60;99.90
45137;DHT22;30894;51.740;19.498;2022-10-30T07:52:49;14.60;99.90
45137;DHT22;30894;51.740;19.498;2022-10-30T07:55:15;14.70;99.90
45137;DHT22;30894;51.740;19.498;2022-10-30T07:57:42;14.70;99.90
45137;DHT22;30894;51.740;19.498;2022-10-30T08:00:10;14.90;99.90
45137;DHT22;30894;51.740;19.498;2022-10-30T08:02:38;15.00;99.90
45137;DHT22;30894;51.740;19.498;2022-10-30T08:05:08;15.10;99.90
45137;DHT22;30894;51.740;19.498;2022-10-30T08:07:36;15.20;99.90
45137;DHT22;30894;51.740;19.498;2022-10-30T08:10:04;15.20;99.90
45137;DHT22;30894;51.740;19.498;2022-10-30T08:12:33;15.20;99.90
45137;DHT22;30894;51.740;19.498;2022-10-30T08:14:59;15.20;99.90
45137;DHT22;30894;51.740;19.498;2022-10-30T08:17:26;15.20;99.90
45137;DHT22;30894;51.740;19.498;2022-10-30T08:19:52;15.20;99.90
45137;DHT22;30894;51.740;19.498;2022-10-30T08:22:20;15.30;99.90
45137;DHT22;30894;51.740;19.498;2022-10-30T08:24:46;15.30;99.90
45137;DHT22;30894;51.740;19.498;2022-10-30T08:27:12;15.30;99.90
45137;DHT22;30894;51.740;19.498;2022-10-30T08:29:38;15.40;99.90
45137;DHT22;30894;51.740;19.498;2022-10-30T08:32:04;15.40;99.90
45137;DHT22;30894;51.740;19.498;2022-10-30T08:34:30;15.40;99.90
45137;DHT22;30894;51.740;19.498;2022-10-30T08:36:57;15.40;99.90
45137;DHT22;30894;51.740;19.498;2022-10-30T08:39:23;15.40;99.90
45137;DHT22;30894;51.740;19.498;2022-10-30T08:41:49;15.50;99.90
45137;DHT22;30894;51.740;19.498;2022-10-30T08:44:15;15.60;99.90
45137;DHT22;30894;51.740;19.498;2022-10-30T08:46:41;15.70;99.90
45137;DHT22;30894;51.740;19.498;2022-10-30T08:49:07;15.80;99.90
45137;DHT22;30894;51.740;19.498;2022-10-30T08:51:34;15.90;99.90
45137;DHT22;30894;51.740;19.498;2022-10-30T08:54:00;15.80;99.90
45137;DHT22;30894;51.740;19.498;2022-10-30T08:56:26;16.00;99.90
45137;DHT22;30894;51.740;19.498;2022-10-30T08:58:53;16.10;99.90
45137;DHT22;30894;51.740;19.498;2022-10-30T09:01:19;16.20;99.90
45137;DHT22;30894;51.740;19.498;2022-10-30T09:03:45;16.40;99.90
45137;DHT22;30894;51.740;19.498;2022-10-30T09:06:13;16.50;99.90
45137;DHT22;30894;51.740;19.498;2022-10-30T09:08:39;16.60;99.90
45137;DHT22;30894;51.740;19.498;2022-10-30T09:11:05;16.60;99.90
45137;DHT22;30894;51.740;19.498;2022-10-30T09:13:32;16.60;99.90
45137;DHT22;30894;51.740;19.498;2022-10-30T09:16:02;16.70;99.90
45137;DHT22;30894;51.740;19.498;2022-10-30T09:18:29;16.80;99.90
45137;DHT22;30894;51.740;19.498;2022-10-30T09:21:00;16.90;99.90
45137;DHT22;30894;51.740;19.498;2022-10-30T09:23:28;17.00;99.90
45137;DHT22;30894;51.740;19.498;2022-10-30T09:25:56;17.20;99.90
45137;DHT22;30894;51.740;19.498;2022-10-30T09:28:22;17.30;99.90
45137;DHT22;30894;51.740;19.498;2022-10-30T09:30:48;17.60;99.90
45137;DHT22;30894;51.740;19.498;2022-10-30T09:33:17;17.70;99.90
45137;DHT22;30894;51.740;19.498;2022-10-30T09:35:43;17.80;99.90
45137;DHT22;30894;51.740;19.498;2022-10-30T09:38:09;17.80;99.90
45137;DHT22;30894;51.740;19.498;2022-10-30T09:40:55;17.90;99.90
45137;DHT22;30894;51.740;19.498;2022-10-30T09:43:51;17.70;99.90
45137;DHT22;30894;51.740;19.498;2022-10-30T09:52:41;18.70;99.90
45137;DHT22;30894;51.740;19.498;2022-10-30T09:58:22;20.00;99.90
45137;DHT22;30894;51.740;19.498;2022-10-30T10:07:01;20.30;99.90
45137;DHT22;30894;51.740;19.498;2022-10-30T10:09:39;20.20;99.90
45137;DHT22;30894;51.740;19.498;2022-10-30T10:12:34;20.00;99.90
45137;DHT22;30894;51.740;19.498;2022-10-30T10:15:13;19.90;99.90
45137;DHT22;30894;51.740;19.498;2022-10-30T10:17:44;19.70;99.90
45137;DHT22;30894;51.740;19.498;2022-10-30T10:20:38;19.50;99.90
45137;DHT22;30894;51.740;19.498;2022-10-30T10:23:25;19.30;99.90
45137;DHT22;30894;51.740;19.498;2022-10-30T10:25:57;19.10;99.90
45137;DHT22;30894;51.740;19.498;2022-10-30T10:28:42;19.00;99.90
45137;DHT22;30894;51.740;19.498;2022-10-30T10:32:05;18.80;99.90
45137;DHT22;30894;51.740;19.498;2022-10-30T10:44:13;19.20;99.90
45137;DHT22;30894;51.740;19.498;2022-10-30T10:50:02;19.70;99.90
45137;DHT22;30894;51.740;19.498;2022-10-30T10:55:28;19.90;99.90
45137;DHT22;30894;51.740;19.498;2022-10-30T10:58:10;20.00;99.90
45137;DHT22;30894;51.740;19.498;2022-10-30T11:00:40;20.10;99.90
45137;DHT22;30894;51.740;19.498;2022-10-30T11:04:02;20.20;99.90
45137;DHT22;30894;51.740;19.498;2022-10-30T11:09:16;20.40;99.90
45137;DHT22;30894;51.740;19.498;2022-10-30T11:11:46;20.50;99.90
45137;DHT22;30894;51.740;19.498;2022-10-30T11:14:17;20.40;99.90
45137;DHT22;30894;51.740;19.498;2022-10-30T11:19:43;20.40;99.90
45137;DHT22;30894;51.740;19.498;2022-10-30T11:22:24;20.80;99.90
45137;DHT22;30894;51.740;19.498;2022-10-30T11:24:55;21.50;98.80
45137;DHT22;30894;51.740;19.498;2022-10-30T11:27:26;22.40;96.40
45137;DHT22;30894;51.740;19.498;2022-10-30T11:30:02;23.20;93.50
45137;DHT22;30894;51.740;19.498;2022-10-30T11:32:32;23.30;92.30
45137;DHT22;30894;51.740;19.498;2022-10-30T11:35:01;22.90;92.60
45137;DHT22;30894;51.740;19.498;2022-10-30T11:37:35;22.50;93.30
45137;DHT22;30894;51.740;19.498;2022-10-30T11:40:19;22.30;94.10
45137;DHT22;30894;51.740;19.498;2022-10-30T11:42:54;22.10;94.70
45137;DHT22;30894;51.740;19.498;2022-10-30T11:45:30;22.20;95.00
45137;DHT22;30894;51.740;19.498;2022-10-30T11:47:59;22.20;95.10
45137;DHT22;30894;51.740;19.498;2022-10-30T11:50:29;22.30;95.10
45137;DHT22;30894;51.740;19.498;2022-10-30T11:55:57;22.60;94.60
45137;DHT22;30894;51.740;19.498;2022-10-30T11:58:33;22.90;94.20
45137;DHT22;30894;51.740;19.498;2022-10-30T12:01:22;23.40;93.20
45137;DHT22;30894;51.740;19.498;2022-10-30T12:03:51;23.80;92.20
45137;DHT22;30894;51.740;19.498;2022-10-30T12:06:28;23.80;91.70
45137;DHT22;30894;51.740;19.498;2022-10-30T12:09:11;23.70;91.80
45137;DHT22;30894;51.740;19.498;2022-10-30T12:11:47;23.60;92.00
45137;DHT22;30894;51.740;19.498;2022-10-30T12:14:20;23.60;92.20
45137;DHT22;30894;51.740;19.498;2022-10-30T12:16:48;23.60;92.10
45137;DHT22;30894;51.740;19.498;2022-10-30T12:19:20;23.90;91.90
45137;DHT22;30894;51.740;19.498;2022-10-30T12:21:50;24.30;91.10
45137;DHT22;30894;51.740;19.498;2022-10-30T12:24:31;24.80;90.30
45137;DHT22;30894;51.740;19.498;2022-10-30T12:27:02;25.40;88.60
45137;DHT22;30894;51.740;19.498;2022-10-30T12:32:19;25.00;88.40
45137;DHT22;30894;51.740;19.498;2022-10-30T12:35:00;24.50;89.70
45137;DHT22;30894;51.740;19.498;2022-10-30T12:37:32;24.20;90.50
45137;DHT22;30894;51.740;19.498;2022-10-30T12:40:14;23.90;91.10
45137;DHT22;30894;51.740;19.498;2022-10-30T12:43:18;23.60;91.60
45137;DHT22;30894;51.740;19.498;2022-10-30T12:46:15;23.40;92.20
45137;DHT22;30894;51.740;19.498;2022-10-30T12:49:14;23.00;92.90
45137;DHT22;30894;51.740;19.498;2022-10-30T12:57:27;22.10;95.30
45137;DHT22;30894;51.740;19.498;2022-10-30T12:59:59;21.90;96.00
45137;DHT22;30894;51.740;19.498;2022-10-30T13:02:58;21.80;96.60
45137;DHT22;30894;51.740;19.498;2022-10-30T13:05:54;21.80;97.10
45137;DHT22;30894;51.740;19.498;2022-10-30T13:14:12;21.90;97.30
45137;DHT22;30894;51.740;19.498;2022-10-30T13:16:41;21.90;97.30
45137;DHT22;30894;51.740;19.498;2022-10-30T13:19:10;21.80;97.60
45137;DHT22;30894;51.740;19.498;2022-10-30T13:22:02;21.60;97.90
45137;DHT22;30894;51.740;19.498;2022-10-30T13:27:46;21.40;98.60
45137;DHT22;30894;51.740;19.498;2022-10-30T13:30:37;21.30;99.00
45137;DHT22;30894;51.740;19.498;2022-10-30T13:33:27;21.10;99.70
45137;DHT22;30894;51.740;19.498;2022-10-30T13:36:10;20.90;99.90
45137;DHT22;30894;51.740;19.498;2022-10-30T13:41:31;20.40;99.90
45137;DHT22;30894;51.740;19.498;2022-10-30T13:52:21;19.80;99.90
45137;DHT22;30894;51.740;19.498;2022-10-30T13:55:12;19.70;99.90
45137;DHT22;30894;51.740;19.498;2022-10-30T14:01:07;19.70;99.90
45137;DHT22;30894;51.740;19.498;2022-10-30T14:04:11;19.70;99.90
45137;DHT22;30894;51.740;19.498;2022-10-30T14:15:44;19.20;99.90
45137;DHT22;30894;51.740;19.498;2022-10-30T14:25:14;18.60;99.90
45137;DHT22;30894;51.740;19.498;2022-10-30T14:28:00;18.40;99.90
45137;DHT22;30894;51.740;19.498;2022-10-30T14:31:34;18.30;99.90
45137;DHT22;30894;51.740;19.498;2022-10-30T14:34:56;18.10;99.90
45137;DHT22;30894;51.740;19.498;2022-10-30T14:40:31;17.90;99.90
45137;DHT22;30894;51.740;19.498;2022-10-30T14:43:40;17.70;99.90
45137;DHT22;30894;51.740;19.498;2022-10-30T14:46:25;17.60;99.90
45137;DHT22;30894;51.740;19.498;2022-10-30T14:49:35;17.50;99.90
45137;DHT22;30894;51.740;19.498;2022-10-30T14:52:36;17.30;99.90
45137;DHT22;30894;51.740;19.498;2022-10-30T15:00:37;17.00;99.90
45137;DHT22;30894;51.740;19.498;2022-10-30T15:03:18;16.80;99.90
45137;DHT22;30894;51.740;19.498;2022-10-30T15:09:05;16.40;99.90
45137;DHT22;30894;51.740;19.498;2022-10-30T15:14:28;16.00;99.90
45137;DHT22;30894;51.740;19.498;2022-10-30T15:17:00;15.80;99.90
45137;DHT22;30894;51.740;19.498;2022-10-30T15:19:27;15.60;99.90
45137;DHT22;30894;51.740;19.498;2022-10-30T15:21:54;15.40;99.90
45137;DHT22;30894;51.740;19.498;2022-10-30T15:24:23;15.20;99.90
45137;DHT22;30894;51.740;19.498;2022-10-30T15:26:57;15.10;99.90
45137;DHT22;30894;51.740;19.498;2022-10-30T15:29:27;15.00;99.90
45137;DHT22;30894;51.740;19.498;2022-10-30T15:32:02;14.80;99.90
45137;DHT22;30894;51.740;19.498;2022-10-30T15:34:39;14.70;99.90
45137;DHT22;30894;51.740;19.498;2022-10-30T15:37:11;14.60;99.90
45137;DHT22;30894;51.740;19.498;2022-10-30T15:39:37;14.30;99.90
45137;DHT22;30894;51.740;19.498;2022-10-30T15:42:04;14.20;99.90
45137;DHT22;30894;51.740;19.498;2022-10-30T15:44:32;14.10;99.90
45137;DHT22;30894;51.740;19.498;2022-10-30T15:47:02;14.00;99.90
45137;DHT22;30894;51.740;19.498;2022-10-30T15:49:33;13.90;99.90
45137;DHT22;30894;51.740;19.498;2022-10-30T15:52:03;13.80;99.90
45137;DHT22;30894;51.740;19.498;2022-10-30T15:54:39;13.80;99.90
45137;DHT22;30894;51.740;19.498;2022-10-30T15:57:15;13.80;99.90
45137;DHT22;30894;51.740;19.498;2022-10-30T15:59:53;13.80;99.90
45137;DHT22;30894;51.740;19.498;2022-10-30T16:02:26;13.70;99.90
45137;DHT22;30894;51.740;19.498;2022-10-30T16:04:55;13.70;99.90
45137;DHT22;30894;51.740;19.498;2022-10-30T16:07:26;13.60;99.90
45137;DHT22;30894;51.740;19.498;2022-10-30T16:09:55;13.60;99.90
45137;DHT22;30894;51.740;19.498;2022-10-30T16:12:28;13.50;99.90
45137;DHT22;30894;51.740;19.498;2022-10-30T16:15:03;13.50;99.90
45137;DHT22;30894;51.740;19.498;2022-10-30T16:17:32;13.40;99.90
45137;DHT22;30894;51.740;19.498;2022-10-30T16:20:02;13.30;99.90
45137;DHT22;30894;51.740;19.498;2022-10-30T16:22:35;13.20;99.90
45137;DHT22;30894;51.740;19.498;2022-10-30T16:25:08;13.10;99.90
45137;DHT22;30894;51.740;19.498;2022-10-30T16:27:45;13.00;99.90
45137;DHT22;30894;51.740;19.498;2022-10-30T16:30:15;12.80;99.90
45137;DHT22;30894;51.740;19.498;2022-10-30T16:32:47;12.70;99.90
45137;DHT22;30894;51.740;19.498;2022-10-30T16:35:21;12.70;99.90
45137;DHT22;30894;51.740;19.498;2022-10-30T16:37:51;12.60;99.90
45137;DHT22;30894;51.740;19.498;2022-10-30T16:40:24;12.50;99.90
45137;DHT22;30894;51.740;19.498;2022-10-30T16:42:55;12.50;99.90
45137;DHT22;30894;51.740;19.498;2022-10-30T16:48:16;12.30;99.90
45137;DHT22;30894;51.740;19.498;2022-10-30T16:50:55;12.30;99.90
45137;DHT22;30894;51.740;19.498;2022-10-30T16:53:25;12.10;99.90
45137;DHT22;30894;51.740;19.498;2022-10-30T16:55:53;12.00;99.90
45137;DHT22;30894;51.740;19.498;2022-10-30T16:58:24;12.00;99.90
45137;DHT22;30894;51.740;19.498;2022-10-30T17:00:54;11.90;99.90
45137;DHT22;30894;51.740;19.498;2022-10-30T17:03:27;11.80;99.90
45137;DHT22;30894;51.740;19.498;2022-10-30T17:05:59;11.80;99.90
45137;DHT22;30894;51.740;19.498;2022-10-30T17:08:40;11.70;99.90
45137;DHT22;30894;51.740;19.498;2022-10-30T17:11:17;11.50;99.90
45137;DHT22;30894;51.740;19.498;2022-10-30T17:16:23;11.40;99.90
45137;DHT22;30894;51.740;19.498;2022-10-30T17:18:50;11.30;99.90
45137;DHT22;30894;51.740;19.498;2022-10-30T17:23:59;11.20;99.90
45137;DHT22;30894;51.740;19.498;2022-10-30T17:26:26;11.20;99.90
45137;DHT22;30894;51.740;19.498;2022-10-30T17:28:56;11.20;99.90
45137;DHT22;30894;51.740;19.498;2022-10-30T17:34:15;11.00;99.90
45137;DHT22;30894;51.740;19.498;2022-10-30T17:36:45;10.90;99.90
45137;DHT22;30894;51.740;19.498;2022-10-30T17:39:13;10.80;99.90
45137;DHT22;30894;51.740;19.498;2022-10-30T17:41:40;10.70;99.90
45137;DHT22;30894;51.740;19.498;2022-10-30T17:44:15;10.60;99.90
45137;DHT22;30894;51.740;19.498;2022-10-30T17:46:43;10.60;99.90
45137;DHT22;30894;51.740;19.498;2022-10-30T17:49:28;10.60;99.90
45137;DHT22;30894;51.740;19.498;2022-10-30T17:51:58;10.50;99.90
45137;DHT22;30894;51.740;19.498;2022-10-30T17:54:27;10.50;99.90
45137;DHT22;30894;51.740;19.498;2022-10-30T17:56:53;10.50;99.90
45137;DHT22;30894;51.740;19.498;2022-10-30T17:59:20;10.40;99.90
45137;DHT22;30894;51.740;19.498;2022-10-30T18:01:45;10.40;99.90